sensor_id;sensor_type;location;lat;lon;timestamp;temperature;humidity
3344;DHT22;1685;53.104;8.228;2022-12-29T00:02:28;9.30;99.90
3344;DHT22;1685;53.104;8.228;2022-12-29T00:17:28;9.40;99.90
3344;DHT22;1685;53.104;8.228;2022-12-29T00:25:25;9.50;99.90
3344;DHT22;1685;53.104;8.228;2022-12-29T00:28:09;9.50;99.90
3344;DHT22;1685;53.104;8.228;2022-12-29T00:33:39;9.20;99.90
3344;DHT22;1685;53.104;8.228;2022-12-29T00:36:26;9.30;99.90
3344;DHT22;1685;53.104;8.228;2022-12-29T00:38:57;9.30;99.90
3344;DHT22;1685;53.104;8.228;2022-12-29T00:49:21;9.20;99.90
3344;DHT22;1685;53.104;8.228;2022-12-29T00:51:57;9.20;99.90
3344;DHT22;1685;53.104;8.228;2022-12-29T00:56:52;9.20;99.90
3344;DHT22;1685;53.104;8.228;2022-12-29T01:01:46;9.30;99.90
3344;DHT22;1685;53.104;8.228;2022-12-29T01:06:42;9.30;99.90
3344;DHT22;1685;53.104;8.228;2022-12-29T01:09:09;9.30;99.90
3344;DHT22;1685;53.104;8.228;2022-12-29T01:11:54;9.80;99.90
3344;DHT22;1685;53.104;8.228;2022-12-29T01:19:16;9.40;99.90
3344;DHT22;1685;53.104;8.228;2022-12-29T01:21:44;9.50;99.90
3344;DHT22;1685;53.104;8.228;2022-12-29T01:33:59;9.70;99.90
3344;DHT22;1685;53.104;8.228;2022-12-29T01:38:54;9.60;99.90
3344;DHT22;1685;53.104;8.228;2022-12-29T01:43:49;9.60;99.90
3344;DHT22;1685;53.104;8.228;2022-12-29T01:46:21;9.70;99.90
3344;DHT22;1685;53.104;8.228;2022-12-29T01:48:51;9.80;99.90
3344;DHT22;1685;53.104;8.228;2022-12-29T01:51:19;9.70;99.90
3344;DHT22;1685;53.104;8.228;2022-12-29T01:56:17;9.80;99.90
3344;DHT22;1685;53.104;8.228;2022-12-29T01:58:47;9.80;99.90
3344;DHT22;1685;53.104;8.228;2022-12-29T02:01:15;9.80;99.90
3344;DHT22;1685;53.104;8.228;2022-12-29T02:06:13;9.90;99.90
3344;DHT22;1685;53.104;8.228;2022-12-29T02:13:37;9.90;99.90
3344;DHT22;1685;53.104;8.228;2022-12-29T02:16:14;9.90;99.90
3344;DHT22;1685;53.104;8.228;2022-12-29T02:18:50;9.90;99.90
3344;DHT22;1685;53.104;8.228;2022-12-29T02:21:45;9.80;99.90
3344;DHT22;1685;53.104;8.228;2022-12-29T02:24:40;10.10;99.90
3344;DHT22;1685;53.104;8.228;2022-12-29T02:27:33;9.90;99.90
3344;DHT22;1685;53.104;8.228;2022-12-29T02:30:08;9.90;99.90
3344;DHT22;1685;53.104;8.228;2022-12-29T02:32:46;9.90;99.90
3344;DHT22;1685;53.104;8.228;2022-12-29T02:35:25;9.90;99.90
3344;DHT22;1685;53.104;8.228;2022-12-29T02:38:02;9.90;99.90
3344;DHT22;1685;53.104;8.228;2022-12-29T02:40:36;9.90;99.90
3344;DHT22;1685;53.104;8.228;2022-12-29T02:43:13;9.90;99.90
3344;DHT22;1685;53.104;8.228;2022-12-29T02:45:47;9.90;99.90
3344;DHT22;1685;53.104;8.228;2022-12-29T02:48:22;10.00;99.90
3344;DHT22;1685;53.104;8.228;2022-12-29T02:50:55;10.00;99.90
3344;DHT22;1685;53.104;8.228;2022-12-29T02:53:23;10.00;99.90
3344;DHT22;1685;53.104;8.228;2022-12-29T03:01:09;10.00;99.90
3344;DHT22;1685;53.104;8.228;2022-12-29T03:03:53;10.00;99.90
3344;DHT22;1685;53.104;8.228;2022-12-29T03:06:35;10.00;99.90
3344;DHT22;1685;53.104;8.228;2022-12-29T03:09:09;10.10;99.90
3344;DHT22;1685;53.104;8.228;2022-12-29T03:11:41;10.00;99.90
3344;DHT22;1685;53.104;8.228;2022-12-29T03:14:33;10.00;99.90
3344;DHT22;1685;53.104;8.228;2022-12-29T03:17:26;10.10;99.90
3344;DHT22;1685;53.104;8.228;2022-12-29T03:20:01;10.10;99.90
3344;DHT22;1685;53.104;8.228;2022-12-29T03:22:33;10.20;99.90
3344;DHT22;1685;53.104;8.228;2022-12-29T03:25:06;10.20;99.90
3344;DHT22;1685;53.104;8.228;2022-12-29T03:27:40;10.20;99.90
3344;DHT22;1685;53.104;8.228;2022-12-29T03:30:08;10.30;99.90
3344;DHT22;1685;53.104;8.228;2022-12-29T03:32:38;10.10;99.90
3344;DHT22;1685;53.104;8.228;2022-12-29T03:35:12;10.10;99.90
3344;DHT22;1685;53.104;8.228;2022-12-29T03:37:42;9.30;99.90
3344;DHT22;1685;53.104;8.228;2022-12-29T03:42:38;10.00;99.90
3344;DHT22;1685;53.104;8.228;2022-12-29T03:45:07;10.00;99.90
3344;DHT22;1685;53.104;8.228;2022-12-29T03:52:29;9.80;99.90
3344;DHT22;1685;53.104;8.228;2022-12-29T04:09:40;9.80;99.90
3344;DHT22;1685;53.104;8.228;2022-12-29T04:26:50;9.90;99.90
3344;DHT22;1685;53.104;8.228;2022-12-29T04:44:01;10.00;99.90
3344;DHT22;1685;53.104;8.228;2022-12-29T05:01:11;10.10;99.90
3344;DHT22;1685;53.104;8.228;2022-12-29T05:18:22;10.10;99.90
3344;DHT22;1685;53.104;8.228;2022-12-29T05:25:44;10.20;99.90
3344;DHT22;1685;53.104;8.228;2022-12-29T05:35:34;10.10;99.90
3344;DHT22;1685;53.104;8.228;2022-12-29T05:52:44;9.90;99.90
3344;DHT22;1685;53.104;8.228;2022-12-29T06:00:07;10.10;99.90
3344;DHT22;1685;53.104;8.228;2022-12-29T06:09:56;9.90;99.90
3344;DHT22;1685;53.104;8.228;2022-12-29T06:12:23;9.90;99.90
3344;DHT22;1685;53.104;8.228;2022-12-29T06:27:07;9.90;99.90
3344;DHT22;1685;53.104;8.228;2022-12-29T06:29:33;9.90;99.90
3344;DHT22;1685;53.104;8.228;2022-12-29T06:39:23;9.90;99.90
3344;DHT22;1685;53.104;8.228;2022-12-29T06:41:52;10.10;99.90
3344;DHT22;1685;53.104;8.228;2022-12-29T06:44:20;9.90;99.90
3344;DHT22;1685;53.104;8.228;2022-12-29T06:54:09;9.60;99.90
3344;DHT22;1685;53.104;8.228;2022-12-29T07:01:31;9.90;99.90
3344;DHT22;1685;53.104;8.228;2022-12-29T07:11:21;9.90;99.90
3344;DHT22;1685;53.104;8.228;2022-12-29T07:13:48;9.90;99.90
3344;DHT22;1685;53.104;8.228;2022-12-29T07:18:43;9.80;99.90
3344;DHT22;1685;53.104;8.228;2022-12-29T07:26:06;9.80;99.90
3344;DHT22;1685;53.104;8.228;2022-12-29T07:28:34;9.90;99.90
3344;DHT22;1685;53.104;8.228;2022-12-29T07:35:56;9.90;99.90
3344;DHT22;1685;53.104;8.228;2022-12-29T07:53:07;9.90;99.90
3344;DHT22;1685;53.104;8.228;2022-12-29T08:05:22;10.00;99.90
3344;DHT22;1685;53.104;8.228;2022-12-29T08:10:17;9.90;99.90
3344;DHT22;1685;53.104;8.228;2022-12-29T08:20:07;10.00;99.90
3344;DHT22;1685;53.104;8.228;2022-12-29T08:27:29;9.90;99.90
3344;DHT22;1685;53.104;8.228;2022-12-29T08:44:40;9.80;99.90
3344;DHT22;1685;53.104;8.228;2022-12-29T09:19:03;9.60;99.90
3344;DHT22;1685;53.104;8.228;2022-12-29T09:36:13;10.00;99.90
3344;DHT22;1685;53.104;8.228;2022-12-29T09:41:13;9.90;99.90
3344;DHT22;1685;53.104;8.228;2022-12-29T09:43:58;9.80;99.90
3344;DHT22;1685;53.104;8.228;2022-12-29T09:46:27;9.90;99.90
3344;DHT22;1685;53.104;8.228;2022-12-29T09:49:07;9.70;99.90
3344;DHT22;1685;53.104;8.228;2022-12-29T09:51:38;9.80;99.90
3344;DHT22;1685;53.104;8.228;2022-12-29T09:54:22;9.80;99.90
3344;DHT22;1685;53.104;8.228;2022-12-29T09:59:20;9.70;99.90
3344;DHT22;1685;53.104;8.228;2022-12-29T10:01:52;9.60;99.90
3344;DHT22;1685;53.104;8.228;2022-12-29T10:06:51;9.60;99.90
3344;DHT22;1685;53.104;8.228;2022-12-29T10:09:31;9.70;99.90
3344;DHT22;1685;53.104;8.228;2022-12-29T10:12:06;9.80;99.90
3344;DHT22;1685;53.104;8.228;2022-12-29T10:14:51;9.90;99.90
3344;DHT22;1685;53.104;8.228;2022-12-29T10:17:26;9.80;99.90
3344;DHT22;1685;53.104;8.228;2022-12-29T10:20:07;9.70;99.90
3344;DHT22;1685;53.104;8.228;2022-12-29T10:22:50;9.90;99.90
3344;DHT22;1685;53.104;8.228;2022-12-29T10:25:24;9.90;99.90
3344;DHT22;1685;53.104;8.228;2022-12-29T10:27:53;9.90;99.90
3344;DHT22;1685;53.104;8.228;2022-12-29T10:30:21;9.80;99.90
3344;DHT22;1685;53.104;8.228;2022-12-29T10:32:51;9.90;99.90
3344;DHT22;1685;53.104;8.228;2022-12-29T10:35:20;9.80;99.90
3344;DHT22;1685;53.104;8.228;2022-12-29T10:37:53;10.10;99.90
3344;DHT22;1685;53.104;8.228;2022-12-29T10:40:26;9.90;99.90
3344;DHT22;1685;53.104;8.228;2022-12-29T10:42:55;9.90;99.90
3344;DHT22;1685;53.104;8.228;2022-12-29T10:45:25;10.00;99.90
3344;DHT22;1685;53.104;8.228;2022-12-29T10:47:57;9.90;99.90
3344;DHT22;1685;53.104;8.228;2022-12-29T10:52:57;9.70;99.90
3344;DHT22;1685;53.104;8.228;2022-12-29T10:55:28;9.80;99.90
3344;DHT22;1685;53.104;8.228;2022-12-29T10:58:00;9.70;99.90
3344;DHT22;1685;53.104;8.228;2022-12-29T11:00:31;9.80;99.90
3344;DHT22;1685;53.104;8.228;2022-12-29T11:03:28;9.80;99.90
3344;DHT22;1685;53.104;8.228;2022-12-29T11:06:02;9.90;99.90
3344;DHT22;1685;53.104;8.228;2022-12-29T11:08:35;9.90;99.90
3344;DHT22;1685;53.104;8.228;2022-12-29T11:11:04;9.90;99.90
3344;DHT22;1685;53.104;8.228;2022-12-29T11:13:32;9.90;99.90
3344;DHT22;1685;53.104;8.228;2022-12-29T11:18:32;10.00;99.90
3344;DHT22;1685;53.104;8.228;2022-12-29T11:21:01;10.20;99.90
3344;DHT22;1685;53.104;8.228;2022-12-29T11:23:32;10.30;99.90
3344;DHT22;1685;53.104;8.228;2022-12-29T11:26:23;10.10;99.90
3344;DHT22;1685;53.104;8.228;2022-12-29T11:29:17;10.20;99.90
3344;DHT22;1685;53.104;8.228;2022-12-29T11:31:47;10.20;99.90
3344;DHT22;1685;53.104;8.228;2022-12-29T11:34:19;10.40;99.90
3344;DHT22;1685;53.104;8.228;2022-12-29T11:36:47;10.40;99.90
3344;DHT22;1685;53.104;8.228;2022-12-29T11:39:26;10.20;99.90
3344;DHT22;1685;53.104;8.228;2022-12-29T11:46:51;10.30;99.90
3344;DHT22;1685;53.104;8.228;2022-12-29T11:49:20;10.40;99.90
3344;DHT22;1685;53.104;8.228;2022-12-29T11:51:49;10.30;99.90
3344;DHT22;1685;53.104;8.228;2022-12-29T11:54:21;10.30;99.90
3344;DHT22;1685;53.104;8.228;2022-12-29T11:56:51;10.20;99.90
3344;DHT22;1685;53.104;8.228;2022-12-29T11:59:29;10.30;99.90
3344;DHT22;1685;53.104;8.228;2022-12-29T12:02:11;10.30;99.90
3344;DHT22;1685;53.104;8.228;2022-12-29T12:07:12;10.20;99.90
3344;DHT22;1685;53.104;8.228;2022-12-29T12:09:43;10.10;99.90
3344;DHT22;1685;53.104;8.228;2022-12-29T12:12:20;10.20;99.90
3344;DHT22;1685;53.104;8.228;2022-12-29T12:14:53;10.10;99.90
3344;DHT22;1685;53.104;8.228;2022-12-29T12:17:24;10.10;99.90
3344;DHT22;1685;53.104;8.228;2022-12-29T12:19:59;10.10;99.90
3344;DHT22;1685;53.104;8.228;2022-12-29T12:22:32;10.10;99.90
3344;DHT22;1685;53.104;8.228;2022-12-29T12:25:03;10.10;99.90
3344;DHT22;1685;53.104;8.228;2022-12-29T12:27:38;10.00;99.90
3344;DHT22;1685;53.104;8.228;2022-12-29T12:30:13;9.80;99.90
3344;DHT22;1685;53.104;8.228;2022-12-29T12:32:46;9.80;99.90
3344;DHT22;1685;53.104;8.228;2022-12-29T12:35:19;9.80;99.90
3344;DHT22;1685;53.104;8.228;2022-12-29T12:38:16;9.90;99.90
3344;DHT22;1685;53.104;8.228;2022-12-29T12:41:00;10.00;99.90
3344;DHT22;1685;53.104;8.228;2022-12-29T12:43:43;9.90;99.90
3344;DHT22;1685;53.104;8.228;2022-12-29T12:46:37;9.80;99.90
3344;DHT22;1685;53.104;8.228;2022-12-29T12:49:21;9.90;99.90
3344;DHT22;1685;53.104;8.228;2022-12-29T12:51:54;9.80;99.90
3344;DHT22;1685;53.104;8.228;2022-12-29T12:54:35;9.60;99.90
3344;DHT22;1685;53.104;8.228;2022-12-29T12:57:13;9.70;99.90
3344;DHT22;1685;53.104;8.228;2022-12-29T12:59:52;9.80;99.90
3344;DHT22;1685;53.104;8.228;2022-12-29T13:02:37;9.80;99.90
3344;DHT22;1685;53.104;8.228;2022-12-29T13:05:24;9.60;99.90
3344;DHT22;1685;53.104;8.228;2022-12-29T13:08:02;10.00;99.90
3344;DHT22;1685;53.104;8.228;2022-12-29T13:10:40;10.00;99.90
3344;DHT22;1685;53.104;8.228;2022-12-29T13:13:35;9.90;99.90
3344;DHT22;1685;53.104;8.228;2022-12-29T13:16:10;10.10;99.90
3344;DHT22;1685;53.104;8.228;2022-12-29T13:18:46;9.90;99.90
3344;DHT22;1685;53.104;8.228;2022-12-29T13:21:24;9.90;99.90
3344;DHT22;1685;53.104;8.228;2022-12-29T13:23:58;9.80;99.90
3344;DHT22;1685;53.104;8.228;2022-12-29T13:26:29;9.80;99.90
3344;DHT22;1685;53.104;8.228;2022-12-29T13:29:03;9.70;99.90
3344;DHT22;1685;53.104;8.228;2022-12-29T13:31:42;9.60;99.90
3344;DHT22;1685;53.104;8.228;2022-12-29T13:34:18;9.70;99.90
3344;DHT22;1685;53.104;8.228;2022-12-29T13:36:51;9.60;99.90
3344;DHT22;1685;53.104;8.228;2022-12-29T13:39:22;9.80;99.90
3344;DHT22;1685;53.104;8.228;2022-12-29T13:41:51;9.50;99.90
3344;DHT22;1685;53.104;8.228;2022-12-29T13:44:22;9.50;99.90
3344;DHT22;1685;53.104;8.228;2022-12-29T13:46:51;9.30;99.90
3344;DHT22;1685;53.104;8.228;2022-12-29T13:49:22;9.40;99.90
3344;DHT22;1685;53.104;8.228;2022-12-29T13:51:51;9.40;99.90
3344;DHT22;1685;53.104;8.228;2022-12-29T13:54:27;9.90;99.90
3344;DHT22;1685;53.104;8.228;2022-12-29T13:57:02;9.40;99.90
3344;DHT22;1685;53.104;8.228;2022-12-29T13:59:38;9.40;99.90
3344;DHT22;1685;53.104;8.228;2022-12-29T14:02:16;9.60;99.90
3344;DHT22;1685;53.104;8.228;2022-12-29T14:04:56;9.50;99.90
3344;DHT22;1685;53.104;8.228;2022-12-29T14:07:23;9.30;99.90
3344;DHT22;1685;53.104;8.228;2022-12-29T14:09:51;9.40;99.90
3344;DHT22;1685;53.104;8.228;2022-12-29T14:12:31;9.20;99.90
3344;DHT22;1685;53.104;8.228;2022-12-29T14:15:14;9.00;99.90
3344;DHT22;1685;53.104;8.228;2022-12-29T14:17:44;8.80;99.90
3344;DHT22;1685;53.104;8.228;2022-12-29T14:20:19;9.00;99.90
3344;DHT22;1685;53.104;8.228;2022-12-29T14:22:57;8.90;99.90
3344;DHT22;1685;53.104;8.228;2022-12-29T14:26:00;8.80;99.90
3344;DHT22;1685;53.104;8.228;2022-12-29T14:28:36;8.80;99.90
3344;DHT22;1685;53.104;8.228;2022-12-29T14:31:05;8.80;99.90
3344;DHT22;1685;53.104;8.228;2022-12-29T14:33:34;9.00;99.90
3344;DHT22;1685;53.104;8.228;2022-12-29T14:36:19;9.10;99.90
3344;DHT22;1685;53.104;8.228;2022-12-29T14:38:47;8.80;99.90
3344;DHT22;1685;53.104;8.228;2022-12-29T14:41:24;9.00;99.90
3344;DHT22;1685;53.104;8.228;2022-12-29T14:43:56;9.00;99.90
3344;DHT22;1685;53.104;8.228;2022-12-29T14:48:56;8.90;99.90
3344;DHT22;1685;53.104;8.228;2022-12-29T14:51:30;8.90;99.90
3344;DHT22;1685;53.104;8.228;2022-12-29T14:56:27;9.10;99.90
3344;DHT22;1685;53.104;8.228;2022-12-29T14:58:58;8.90;99.90
3344;DHT22;1685;53.104;8.228;2022-12-29T15:01:36;8.90;99.90
3344;DHT22;1685;53.104;8.228;2022-12-29T15:04:15;8.80;99.90
3344;DHT22;1685;53.104;8.228;2022-12-29T15:09:19;8.70;99.90
3344;DHT22;1685;53.104;8.228;2022-12-29T15:11:52;8.60;99.90
3344;DHT22;1685;53.104;8.228;2022-12-29T15:14:32;8.60;99.90
3344;DHT22;1685;53.104;8.228;2022-12-29T15:17:00;8.50;99.90
3344;DHT22;1685;53.104;8.228;2022-12-29T15:19:28;8.50;99.90
3344;DHT22;1685;53.104;8.228;2022-12-29T15:21:56;8.50;99.90
3344;DHT22;1685;53.104;8.228;2022-12-29T15:24:23;8.40;99.90
3344;DHT22;1685;53.104;8.228;2022-12-29T15:26:52;8.50;99.90
3344;DHT22;1685;53.104;8.228;2022-12-29T15:29:31;8.70;99.90
3344;DHT22;1685;53.104;8.228;2022-12-29T15:32:00;8.70;99.90
3344;DHT22;1685;53.104;8.228;2022-12-29T15:34:31;8.50;99.90
3344;DHT22;1685;53.104;8.228;2022-12-29T15:39:29;8.40;99.90
3344;DHT22;1685;53.104;8.228;2022-12-29T15:41:59;8.50;99.90
3344;DHT22;1685;53.104;8.228;2022-12-29T15:44:31;8.50;99.90
3344;DHT22;1685;53.104;8.228;2022-12-29T15:47:02;8.50;99.90
3344;DHT22;1685;53.104;8.228;2022-12-29T15:49:30;8.40;99.90
3344;DHT22;1685;53.104;8.228;2022-12-29T15:54:31;8.50;99.90
3344;DHT22;1685;53.104;8.228;2022-12-29T15:59:27;8.40;99.90
3344;DHT22;1685;53.104;8.228;2022-12-29T16:01:54;8.40;99.90
3344;DHT22;1685;53.104;8.228;2022-12-29T16:06:57;8.30;99.90
3344;DHT22;1685;53.104;8.228;2022-12-29T16:09:32;8.30;99.90
3344;DHT22;1685;53.104;8.228;2022-12-29T16:12:03;8.30;99.90
3344;DHT22;1685;53.104;8.228;2022-12-29T16:14:34;8.20;99.90
3344;DHT22;1685;53.104;8.228;2022-12-29T16:19:34;8.30;99.90
3344;DHT22;1685;53.104;8.228;2022-12-29T16:22:10;8.20;99.90
3344;DHT22;1685;53.104;8.228;2022-12-29T16:24:39;8.20;99.90
3344;DHT22;1685;53.104;8.228;2022-12-29T16:27:07;8.20;99.90
3344;DHT22;1685;53.104;8.228;2022-12-29T16:32:23;10.50;99.90
3344;DHT22;1685;53.104;8.228;2022-12-29T16:35:00;8.30;99.90
3344;DHT22;1685;53.104;8.228;2022-12-29T16:37:31;8.50;99.90
3344;DHT22;1685;53.104;8.228;2022-12-29T16:40:26;8.40;99.90
3344;DHT22;1685;53.104;8.228;2022-12-29T16:42:58;8.40;99.90
3344;DHT22;1685;53.104;8.228;2022-12-29T16:48:34;8.40;99.90
3344;DHT22;1685;53.104;8.228;2022-12-29T16:51:03;8.40;99.90
3344;DHT22;1685;53.104;8.228;2022-12-29T16:53:35;8.30;99.90
3344;DHT22;1685;53.104;8.228;2022-12-29T16:56:07;8.40;99.90
3344;DHT22;1685;53.104;8.228;2022-12-29T17:01:04;8.20;99.90
3344;DHT22;1685;53.104;8.228;2022-12-29T17:03:42;8.40;99.90
3344;DHT22;1685;53.104;8.228;2022-12-29T17:06:14;8.50;99.90
3344;DHT22;1685;53.104;8.228;2022-12-29T17:08:44;8.40;99.90
3344;DHT22;1685;53.104;8.228;2022-12-29T17:11:20;8.20;99.90
3344;DHT22;1685;53.104;8.228;2022-12-29T17:23:54;8.50;99.90
3344;DHT22;1685;53.104;8.228;2022-12-29T17:41:12;8.60;99.90
3344;DHT22;1685;53.104;8.228;2022-12-29T17:53:29;8.70;99.90
3344;DHT22;1685;53.104;8.228;2022-12-29T17:58:26;8.80;99.90
3344;DHT22;1685;53.104;8.228;2022-12-29T18:00:54;8.80;99.90
3344;DHT22;1685;53.104;8.228;2022-12-29T18:03:23;8.80;99.90
3344;DHT22;1685;53.104;8.228;2022-12-29T18:13:18;8.80;99.90
3344;DHT22;1685;53.104;8.228;2022-12-29T18:15:47;8.80;99.90
3344;DHT22;1685;53.104;8.228;2022-12-29T18:18:16;8.80;99.90
3344;DHT22;1685;53.104;8.228;2022-12-29T18:20:44;8.80;99.90
3344;DHT22;1685;53.104;8.228;2022-12-29T18:23:17;8.80;99.90
3344;DHT22;1685;53.104;8.228;2022-12-29T18:25:46;8.80;99.90
3344;DHT22;1685;53.104;8.228;2022-12-29T18:33:13;8.60;99.90
3344;DHT22;1685;53.104;8.228;2022-12-29T18:35:42;8.60;99.90
3344;DHT22;1685;53.104;8.228;2022-12-29T18:45:32;7.80;99.90
3344;DHT22;1685;53.104;8.228;2022-12-29T18:50:27;6.90;99.90
3344;DHT22;1685;53.104;8.228;2022-12-29T18:55:23;6.80;99.90
3344;DHT22;1685;53.104;8.228;2022-12-29T19:00:19;6.70;99.90
3344;DHT22;1685;53.104;8.228;2022-12-29T19:02:47;6.60;99.90
3344;DHT22;1685;53.104;8.228;2022-12-29T19:05:19;6.60;99.90
3344;DHT22;1685;53.104;8.228;2022-12-29T19:07:48;6.70;99.90
3344;DHT22;1685;53.104;8.228;2022-12-29T19:10:15;6.80;99.90
3344;DHT22;1685;53.104;8.228;2022-12-29T19:12:42;6.90;99.90
3344;DHT22;1685;53.104;8.228;2022-12-29T19:15:15;6.90;99.90
3344;DHT22;1685;53.104;8.228;2022-12-29T19:20:29;7.00;99.90
3344;DHT22;1685;53.104;8.228;2022-12-29T19:22:59;7.30;99.90
3344;DHT22;1685;53.104;8.228;2022-12-29T19:25:26;7.30;99.90
3344;DHT22;1685;53.104;8.228;2022-12-29T19:32:49;7.30;99.90
3344;DHT22;1685;53.104;8.228;2022-12-29T19:35:17;7.40;99.90
3344;DHT22;1685;53.104;8.228;2022-12-29T19:40:15;7.50;99.90
3344;DHT22;1685;53.104;8.228;2022-12-29T19:45:12;7.30;99.90
3344;DHT22;1685;53.104;8.228;2022-12-29T19:50:09;7.20;99.90
3344;DHT22;1685;53.104;8.228;2022-12-29T19:55:04;7.00;99.90
3344;DHT22;1685;53.104;8.228;2022-12-29T19:57:32;7.10;99.90
3344;DHT22;1685;53.104;8.228;2022-12-29T20:02:27;6.90;99.90
3344;DHT22;1685;53.104;8.228;2022-12-29T20:14:44;7.00;99.90
3344;DHT22;1685;53.104;8.228;2022-12-29T20:17:13;7.10;99.90
3344;DHT22;1685;53.104;8.228;2022-12-29T20:22:09;7.10;99.90
3344;DHT22;1685;53.104;8.228;2022-12-29T20:24:37;7.00;99.90
3344;DHT22;1685;53.104;8.228;2022-12-29T20:27:06;7.10;99.90
3344;DHT22;1685;53.104;8.228;2022-12-29T20:29:35;7.20;99.90
3344;DHT22;1685;53.104;8.228;2022-12-29T20:32:06;7.20;99.90
3344;DHT22;1685;53.104;8.228;2022-12-29T20:34:32;7.40;99.90
3344;DHT22;1685;53.104;8.228;2022-12-29T20:37:02;7.30;99.90
3344;DHT22;1685;53.104;8.228;2022-12-29T20:49:19;7.20;99.90
3344;DHT22;1685;53.104;8.228;2022-12-29T20:51:46;7.20;99.90
3344;DHT22;1685;53.104;8.228;2022-12-29T21:06:31;7.10;99.90
3344;DHT22;1685;53.104;8.228;2022-12-29T21:21:15;7.00;99.90
3344;DHT22;1685;53.104;8.228;2022-12-29T21:23:44;7.00;99.90
3344;DHT22;1685;53.104;8.228;2022-12-29T21:26:13;7.00;99.90
3344;DHT22;1685;53.104;8.228;2022-12-29T21:28:40;6.80;99.90
3344;DHT22;1685;53.104;8.228;2022-12-29T21:31:08;7.00;99.90
3344;DHT22;1685;53.104;8.228;2022-12-29T21:33:36;6.90;99.90
3344;DHT22;1685;53.104;8.228;2022-12-29T21:36:04;7.00;99.90
3344;DHT22;1685;53.104;8.228;2022-12-29T21:41:05;7.00;99.90
3344;DHT22;1685;53.104;8.228;2022-12-29T21:50:56;7.00;99.90
3344;DHT22;1685;53.104;8.228;2022-12-29T21:56:11;7.00;99.90
3344;DHT22;1685;53.104;8.228;2022-12-29T21:58:39;7.00;99.90
3344;DHT22;1685;53.104;8.228;2022-12-29T22:01:25;7.00;99.90
3344;DHT22;1685;53.104;8.228;2022-12-29T22:04:11;7.20;99.90
3344;DHT22;1685;53.104;8.228;2022-12-29T22:09:40;7.10;99.90
3344;DHT22;1685;53.104;8.228;2022-12-29T22:12:28;7.00;99.90
3344;DHT22;1685;53.104;8.228;2022-12-29T22:15:12;7.10;99.90
3344;DHT22;1685;53.104;8.228;2022-12-29T22:17:39;6.90;99.90
3344;DHT22;1685;53.104;8.228;2022-12-29T22:20:08;7.00;99.90
3344;DHT22;1685;53.104;8.228;2022-12-29T22:22:35;7.00;99.90
3344;DHT22;1685;53.104;8.228;2022-12-29T22:25:02;7.00;99.90
3344;DHT22;1685;53.104;8.228;2022-12-29T22:27:30;5.90;99.90
3344;DHT22;1685;53.104;8.228;2022-12-29T22:29:57;7.00;99.90
3344;DHT22;1685;53.104;8.228;2022-12-29T22:32:24;7.00;99.90
3344;DHT22;1685;53.104;8.228;2022-12-29T22:34:50;6.90;99.90
3344;DHT22;1685;53.104;8.228;2022-12-29T22:37:17;7.10;99.90
3344;DHT22;1685;53.104;8.228;2022-12-29T22:39:45;7.10;99.90
3344;DHT22;1685;53.104;8.228;2022-12-29T22:44:41;7.00;99.90
3344;DHT22;1685;53.104;8.228;2022-12-29T22:47:08;7.10;99.90
3344;DHT22;1685;53.104;8.228;2022-12-29T22:49:35;7.10;99.90
3344;DHT22;1685;53.104;8.228;2022-12-29T22:54:29;7.00;99.90
3344;DHT22;1685;53.104;8.228;2022-12-29T22:56:56;7.00;99.90
3344;DHT22;1685;53.104;8.228;2022-12-29T22:59:23;6.70;99.90
3344;DHT22;1685;53.104;8.228;2022-12-29T23:01:51;7.00;99.90
3344;DHT22;1685;53.104;8.228;2022-12-29T23:04:17;7.10;99.90
3344;DHT22;1685;53.104;8.228;2022-12-29T23:06:44;7.10;99.90
3344;DHT22;1685;53.104;8.228;2022-12-29T23:09:15;7.00;99.90
3344;DHT22;1685;53.104;8.228;2022-12-29T23:16:36;7.10;99.90
3344;DHT22;1685;53.104;8.228;2022-12-29T23:19:04;7.00;99.90
3344;DHT22;1685;53.104;8.228;2022-12-29T23:21:31;7.10;99.90
3344;DHT22;1685;53.104;8.228;2022-12-29T23:26:30;7.00;99.90
3344;DHT22;1685;53.104;8.228;2022-12-29T23:28:59;7.00;99.90
3344;DHT22;1685;53.104;8.228;2022-12-29T23:36:22;7.20;99.90
3344;DHT22;1685;53.104;8.228;2022-12-29T23:38:48;6.90;99.90
3344;DHT22;1685;53.104;8.228;2022-12-29T23:46:11;7.20;99.90
3344;DHT22;1685;53.104;8.228;2022-12-29T23:48:38;7.20;99.90
3344;DHT22;1685;53.104;8.228;2022-12-29T23:51:05;7.30;99.90
3344;DHT22;1685;53.104;8.228;2022-12-29T23:53:35;7.20;99.90
3344;DHT22;1685;53.104;8.228;2022-12-29T23:56:02;7.20;99.90
3344;DHT22;1685;53.104;8.228;2022-12-29T23:58:30;7.10;99.90
